createdAt,value
2019-05-22T00:01:25.270Z,14.90
2019-05-22T00:04:06.793Z,14.90
2019-05-22T00:06:41.571Z,14.90
2019-05-22T00:09:19.577Z,14.90
2019-05-22T00:11:51.990Z,14.90
2019-05-22T00:14:22.073Z,15.00
2019-05-22T00:16:51.537Z,15.00
2019-05-22T00:19:22.628Z,15.00
2019-05-22T00:21:57.242Z,15.00
2019-05-22T00:24:27.202Z,15.10
2019-05-22T00:26:58.270Z,15.10
2019-05-22T00:29:28.243Z,15.10
2019-05-22T00:31:58.068Z,15.20
2019-05-22T00:34:27.914Z,15.20
2019-05-22T00:36:57.562Z,15.20
2019-05-22T00:39:28.664Z,15.20
2019-05-22T00:41:58.342Z,15.20
2019-05-22T00:44:29.181Z,15.20
2019-05-22T00:47:01.129Z,15.20
2019-05-22T00:49:32.806Z,15.20
2019-05-22T00:52:06.490Z,15.20
2019-05-22T00:54:55.281Z,15.20
2019-05-22T00:57:45.549Z,15.20
2019-05-22T01:00:27.923Z,15.20
2019-05-22T01:02:57.544Z,15.20
2019-05-22T01:05:30.070Z,15.20
2019-05-22T01:08:00.957Z,15.20
2019-05-22T01:10:31.227Z,15.20
2019-05-22T01:13:00.867Z,15.20
2019-05-22T01:15:32.089Z,15.20
2019-05-22T01:18:07.342Z,15.30
2019-05-22T01:20:38.278Z,15.30
2019-05-22T01:23:09.327Z,15.30
2019-05-22T01:25:40.392Z,15.30
2019-05-22T01:28:13.065Z,15.30
2019-05-22T01:31:07.049Z,15.30
2019-05-22T01:33:44.794Z,15.30
2019-05-22T01:36:26.135Z,15.30
2019-05-22T01:39:00.897Z,15.40
2019-05-22T01:41:33.041Z,15.40
2019-05-22T01:44:06.134Z,15.40
2019-05-22T01:46:37.198Z,15.40
2019-05-22T01:49:10.397Z,15.40
2019-05-22T01:51:40.040Z,15.50
2019-05-22T01:54:11.276Z,15.50
2019-05-22T01:56:41.908Z,15.50
2019-05-22T01:59:12.469Z,15.50
2019-05-22T02:01:41.994Z,15.50
2019-05-22T02:04:14.986Z,15.50
2019-05-22T02:06:44.577Z,15.50
2019-05-22T02:09:33.823Z,15.50
2019-05-22T02:12:18.152Z,15.50
2019-05-22T02:14:50.393Z,15.50
2019-05-22T02:17:23.861Z,15.50
2019-05-22T02:19:53.373Z,15.50
2019-05-22T02:22:23.538Z,15.50
2019-05-22T02:24:53.313Z,15.50
2019-05-22T02:27:24.086Z,15.60
2019-05-22T02:29:55.309Z,15.60
2019-05-22T02:32:25.694Z,15.60
2019-05-22T02:34:55.517Z,15.70
2019-05-22T02:37:25.198Z,15.70
2019-05-22T02:39:55.661Z,15.60
2019-05-22T02:42:30.989Z,15.60
2019-05-22T02:45:01.548Z,15.60
2019-05-22T02:47:32.091Z,15.60
2019-05-22T02:50:02.284Z,15.60
2019-05-22T02:52:31.600Z,15.60
2019-05-22T02:55:02.151Z,15.60
2019-05-22T02:57:31.668Z,15.50
2019-05-22T03:00:01.767Z,15.50
2019-05-22T03:02:33.843Z,15.50
2019-05-22T03:05:07.216Z,15.60
2019-05-22T03:07:38.083Z,15.50
2019-05-22T03:10:10.678Z,15.60
2019-05-22T03:12:40.954Z,15.60
2019-05-22T03:15:12.966Z,15.60
2019-05-22T03:17:45.549Z,15.60
2019-05-22T03:20:19.398Z,15.50
2019-05-22T03:23:12.251Z,15.50
2019-05-22T03:25:43.530Z,15.50
2019-05-22T03:28:13.909Z,15.50
2019-05-22T03:30:43.880Z,15.50
2019-05-22T03:33:13.344Z,15.50
2019-05-22T03:35:45.900Z,15.50
2019-05-22T03:38:17.639Z,15.50
2019-05-22T03:40:47.989Z,15.40
2019-05-22T03:43:20.959Z,15.40
2019-05-22T03:45:51.943Z,15.40
2019-05-22T03:48:23.638Z,15.50
2019-05-22T03:50:56.209Z,15.50
2019-05-22T03:53:25.942Z,15.50
2019-05-22T03:55:57.283Z,15.50
2019-05-22T03:58:26.839Z,15.50
2019-05-22T04:00:58.905Z,15.50
2019-05-22T04:03:29.056Z,15.60
2019-05-22T04:06:00.194Z,15.60
2019-05-22T04:08:31.054Z,15.60
2019-05-22T04:11:03.450Z,15.60
2019-05-22T04:13:34.358Z,15.70
2019-05-22T04:16:06.671Z,15.70
2019-05-22T04:18:37.504Z,15.70
2019-05-22T04:21:06.766Z,15.70
2019-05-22T04:23:37.734Z,15.70
2019-05-22T04:26:11.759Z,15.70
2019-05-22T04:28:49.110Z,15.80
2019-05-22T04:31:19.566Z,15.90
2019-05-22T04:33:49.222Z,15.80
2019-05-22T04:36:19.968Z,15.90
2019-05-22T04:38:49.839Z,15.90
2019-05-22T04:41:19.603Z,15.90
2019-05-22T04:43:49.563Z,15.90
2019-05-22T04:46:19.129Z,16.00
2019-05-22T04:48:48.740Z,16.10
2019-05-22T04:51:27.107Z,16.20
2019-05-22T04:53:57.053Z,16.40
2019-05-22T04:56:27.665Z,16.70
2019-05-22T04:58:58.185Z,16.90
2019-05-22T05:01:27.554Z,17.10
2019-05-22T05:03:57.439Z,17.10
2019-05-22T05:06:29.031Z,17.00
2019-05-22T05:08:58.590Z,17.10
2019-05-22T05:11:27.900Z,17.10
2019-05-22T05:13:57.461Z,16.90
2019-05-22T05:16:26.726Z,16.80
2019-05-22T05:18:56.491Z,16.70
2019-05-22T05:21:25.972Z,16.60
2019-05-22T05:23:56.029Z,16.40
2019-05-22T05:26:26.797Z,16.30
2019-05-22T05:28:59.754Z,16.40
2019-05-22T05:31:29.989Z,16.60
2019-05-22T05:34:13.741Z,16.80
2019-05-22T05:36:44.934Z,16.90
2019-05-22T05:39:58.163Z,17.00
2019-05-22T05:42:27.635Z,17.10
2019-05-22T05:44:56.893Z,17.00
2019-05-22T05:47:26.666Z,16.90
2019-05-22T05:49:57.802Z,17.00
2019-05-22T05:52:29.242Z,17.10
2019-05-22T05:55:00.134Z,17.10
2019-05-22T05:58:15.327Z,17.10
2019-05-22T06:00:51.985Z,17.00
2019-05-22T06:03:33.703Z,17.10
2019-05-22T06:06:51.849Z,17.20
2019-05-22T06:09:21.367Z,17.30
2019-05-22T06:11:55.924Z,17.30
2019-05-22T06:14:27.290Z,17.40
2019-05-22T06:17:43.987Z,17.60
2019-05-22T06:20:17.022Z,17.80
2019-05-22T06:23:20.732Z,18.00
2019-05-22T06:25:51.455Z,18.00
2019-05-22T06:28:20.721Z,17.80
2019-05-22T06:30:50.765Z,17.70
2019-05-22T06:33:31.113Z,17.70
2019-05-22T06:36:02.582Z,17.60
2019-05-22T06:39:11.838Z,17.60
2019-05-22T06:41:42.820Z,17.60
2019-05-22T06:44:43.312Z,17.90
2019-05-22T06:47:17.702Z,18.10
2019-05-22T06:49:49.080Z,18.20
2019-05-22T06:52:18.503Z,18.40
2019-05-22T06:54:48.718Z,18.60
2019-05-22T06:57:37.083Z,18.60
2019-05-22T07:00:24.857Z,18.40
2019-05-22T07:02:54.166Z,18.30
2019-05-22T07:05:24.516Z,18.70
2019-05-22T07:07:54.005Z,19.00
2019-05-22T07:10:23.843Z,19.30
2019-05-22T07:12:53.337Z,19.50
2019-05-22T07:15:30.881Z,19.50
2019-05-22T07:18:03.260Z,19.30
2019-05-22T07:20:35.701Z,19.00
2019-05-22T07:23:08.650Z,18.90
2019-05-22T07:25:40.162Z,18.90
2019-05-22T07:28:10.461Z,18.80
2019-05-22T07:30:40.541Z,18.80
2019-05-22T07:33:10.521Z,18.60
2019-05-22T07:36:04.836Z,18.60
2019-05-22T07:38:11.865Z,18.60
2019-05-22T07:40:41.466Z,18.80
2019-05-22T07:43:10.930Z,19.10
2019-05-22T07:45:40.909Z,19.50
2019-05-22T07:48:11.098Z,19.60
2019-05-22T07:50:48.674Z,19.80
2019-05-22T07:53:18.668Z,19.80
2019-05-22T07:55:51.014Z,20.30
2019-05-22T07:58:21.017Z,21.90
2019-05-22T08:00:56.579Z,22.90
2019-05-22T08:03:27.537Z,24.20
2019-05-22T08:05:57.881Z,23.90
2019-05-22T08:08:29.705Z,23.20
2019-05-22T08:10:59.819Z,22.50
2019-05-22T08:13:30.391Z,23.00
2019-05-22T08:15:59.866Z,24.60
2019-05-22T08:18:32.589Z,25.00
2019-05-22T08:21:02.196Z,27.00
2019-05-22T08:23:31.986Z,26.40
2019-05-22T08:26:01.458Z,25.20
2019-05-22T08:28:33.214Z,24.00
2019-05-22T08:31:04.138Z,24.10
2019-05-22T08:33:37.401Z,28.00
2019-05-22T08:36:07.036Z,28.70
2019-05-22T08:38:37.210Z,27.70
2019-05-22T08:41:09.782Z,26.60
2019-05-22T08:44:11.291Z,25.40
2019-05-22T08:46:12.932Z,24.80
2019-05-22T08:48:48.203Z,23.90
2019-05-22T08:51:14.990Z,23.50
2019-05-22T08:53:47.926Z,23.40
2019-05-22T08:56:16.443Z,23.10
2019-05-22T08:58:47.558Z,22.90
2019-05-22T09:01:17.033Z,22.60
2019-05-22T09:03:46.556Z,22.20
2019-05-22T09:06:16.258Z,21.60
2019-05-22T09:08:46.086Z,21.20
2019-05-22T09:11:15.756Z,20.90
2019-05-22T09:13:45.076Z,20.90
2019-05-22T09:16:16.716Z,20.90
2019-05-22T09:18:46.175Z,21.30
2019-05-22T09:21:16.584Z,21.60
2019-05-22T09:23:47.291Z,21.60
2019-05-22T09:26:17.218Z,21.20
2019-05-22T09:28:46.593Z,21.00
2019-05-22T09:31:16.246Z,20.80
2019-05-22T09:33:45.614Z,20.50
2019-05-22T09:36:14.897Z,20.10
2019-05-22T09:38:44.619Z,19.90
2019-05-22T09:41:13.918Z,19.90
2019-05-22T09:43:43.418Z,20.00
2019-05-22T09:46:13.759Z,20.10
2019-05-22T09:48:43.738Z,20.10
2019-05-22T09:51:13.069Z,20.40
2019-05-22T09:53:42.619Z,20.40
2019-05-22T09:56:12.145Z,20.40
2019-05-22T09:58:41.631Z,20.60
2019-05-22T10:01:12.090Z,20.90
2019-05-22T10:03:41.713Z,20.90
2019-05-22T10:06:11.566Z,20.60
2019-05-22T10:08:41.173Z,20.40
2019-05-22T10:11:10.515Z,20.40
2019-05-22T10:13:40.394Z,20.20
2019-05-22T10:16:09.655Z,20.00
2019-05-22T10:18:38.985Z,19.90
2019-05-22T10:21:09.005Z,19.70
2019-05-22T10:23:39.149Z,19.50
2019-05-22T10:26:09.365Z,19.40
2019-05-22T10:28:39.058Z,19.30
2019-05-22T10:31:09.487Z,19.40
2019-05-22T10:33:39.944Z,19.20
2019-05-22T10:36:09.531Z,19.20
2019-05-22T10:38:38.873Z,19.10
2019-05-22T10:41:08.327Z,19.10
2019-05-22T10:43:37.767Z,19.10
2019-05-22T10:46:08.213Z,18.80
2019-05-22T10:48:40.088Z,18.80
2019-05-22T10:51:09.116Z,18.80
2019-05-22T10:53:39.724Z,18.80
2019-05-22T10:56:10.257Z,18.80
2019-05-22T10:58:39.697Z,18.70
2019-05-22T11:01:09.988Z,18.50
2019-05-22T11:03:39.707Z,18.40
2019-05-22T11:06:09.372Z,18.30
2019-05-22T11:08:40.347Z,18.20
2019-05-22T11:11:10.383Z,18.20
2019-05-22T11:13:40.542Z,18.20
2019-05-22T11:16:10.320Z,18.20
2019-05-22T11:18:40.557Z,18.00
2019-05-22T11:21:10.529Z,18.00
2019-05-22T11:23:51.338Z,18.00
2019-05-22T11:26:11.752Z,18.00
2019-05-22T11:28:41.283Z,17.90
2019-05-22T11:31:10.849Z,18.00
2019-05-22T11:33:41.381Z,18.00
2019-05-22T11:36:11.622Z,18.00
2019-05-22T11:38:40.997Z,18.00
2019-05-22T11:41:11.325Z,17.90
2019-05-22T11:43:43.840Z,17.80
2019-05-22T11:46:13.549Z,17.80
2019-05-22T11:48:43.238Z,17.80
2019-05-22T11:51:12.842Z,17.70
2019-05-22T11:53:42.215Z,17.70
2019-05-22T11:56:11.658Z,17.70
2019-05-22T11:58:41.057Z,17.60
2019-05-22T12:01:10.579Z,17.60
2019-05-22T12:03:40.994Z,17.80
2019-05-22T12:06:10.525Z,18.00
2019-05-22T12:08:40.220Z,18.20
2019-05-22T12:11:11.162Z,18.30
2019-05-22T12:13:40.533Z,18.50
2019-05-22T12:16:09.999Z,18.70
2019-05-22T12:18:39.647Z,18.90
2019-05-22T12:21:08.941Z,19.00
2019-05-22T12:23:38.470Z,19.20
2019-05-22T12:26:09.178Z,19.20
2019-05-22T12:28:39.056Z,19.20
2019-05-22T12:31:09.455Z,19.30
2019-05-22T12:33:39.447Z,19.30
2019-05-22T12:36:12.026Z,19.40
2019-05-22T12:38:41.890Z,19.60
2019-05-22T12:41:13.008Z,19.70
2019-05-22T12:43:45.044Z,19.90
2019-05-22T12:46:15.191Z,19.90
2019-05-22T12:48:45.216Z,20.20
2019-05-22T12:51:15.662Z,20.40
2019-05-22T12:53:45.633Z,20.40
2019-05-22T12:56:15.438Z,20.60
2019-05-22T12:58:46.323Z,20.80
2019-05-22T13:01:17.798Z,21.00
2019-05-22T13:03:48.452Z,21.20
2019-05-22T13:06:18.124Z,21.10
2019-05-22T13:08:47.475Z,21.00
2019-05-22T13:11:17.172Z,21.00
2019-05-22T13:13:46.954Z,21.10
2019-05-22T13:16:16.897Z,21.10
2019-05-22T13:18:47.705Z,21.00
2019-05-22T13:21:20.622Z,21.00
2019-05-22T13:23:51.589Z,20.80
2019-05-22T13:26:23.245Z,20.60
2019-05-22T13:28:54.705Z,20.30
2019-05-22T13:31:25.114Z,20.50
2019-05-22T13:33:54.972Z,21.10
2019-05-22T13:36:25.271Z,21.50
2019-05-22T13:38:54.941Z,21.60
2019-05-22T13:41:24.312Z,20.90
2019-05-22T13:43:54.031Z,20.00
2019-05-22T13:46:23.984Z,19.30
2019-05-22T13:48:53.323Z,18.90
2019-05-22T13:51:22.922Z,18.30
2019-05-22T13:53:53.634Z,17.70
2019-05-22T13:56:25.628Z,17.00
2019-05-22T13:58:56.207Z,16.30
2019-05-22T14:01:26.200Z,15.80
2019-05-22T14:03:56.443Z,15.50
2019-05-22T14:06:25.950Z,15.40
2019-05-22T14:08:55.587Z,15.30
2019-05-22T14:11:25.006Z,15.30
2019-05-22T14:13:54.871Z,15.40
2019-05-22T14:16:24.473Z,15.30
2019-05-22T14:18:53.804Z,15.20
2019-05-22T14:21:23.206Z,15.20
2019-05-22T14:23:52.510Z,15.30
2019-05-22T14:26:21.903Z,15.40
2019-05-22T14:28:51.693Z,15.50
2019-05-22T14:31:20.969Z,15.60
2019-05-22T14:33:50.759Z,15.80
2019-05-22T14:36:20.676Z,15.90
2019-05-22T14:38:50.159Z,16.00
2019-05-22T14:41:19.698Z,16.10
2019-05-22T14:43:48.998Z,16.10
2019-05-22T14:46:18.362Z,16.20
2019-05-22T14:48:47.827Z,16.30
2019-05-22T14:51:20.238Z,16.40
2019-05-22T14:53:52.164Z,16.50
2019-05-22T14:56:22.223Z,16.70
2019-05-22T14:58:51.699Z,16.90
2019-05-22T15:01:22.338Z,17.00
2019-05-22T15:03:51.989Z,17.10
2019-05-22T15:06:21.279Z,17.10
2019-05-22T15:08:50.507Z,17.00
2019-05-22T15:11:20.729Z,17.00
2019-05-22T15:13:50.543Z,17.00
2019-05-22T15:16:20.531Z,17.00
2019-05-22T15:18:49.870Z,17.00
2019-05-22T15:21:19.649Z,17.00
2019-05-22T15:23:51.063Z,17.00
2019-05-22T15:26:20.962Z,17.00
2019-05-22T15:28:50.614Z,16.90
2019-05-22T15:31:20.370Z,16.90
2019-05-22T15:33:50.437Z,16.90
2019-05-22T15:36:22.783Z,16.90
2019-05-22T15:38:53.377Z,17.00
2019-05-22T15:41:23.786Z,17.10
2019-05-22T15:43:54.562Z,17.30
2019-05-22T15:46:26.105Z,17.40
2019-05-22T15:48:56.152Z,17.40
2019-05-22T15:51:30.043Z,17.40
2019-05-22T15:54:02.245Z,17.30
2019-05-22T15:56:33.860Z,17.30
2019-05-22T15:59:05.937Z,17.20
2019-05-22T16:01:36.812Z,17.20
2019-05-22T16:04:09.056Z,17.10
2019-05-22T16:06:39.385Z,17.00
2019-05-22T16:09:13.206Z,16.90
2019-05-22T16:11:44.090Z,16.80
2019-05-22T16:14:14.839Z,16.80
2019-05-22T16:16:47.015Z,16.70
2019-05-22T16:19:17.065Z,16.70
2019-05-22T16:21:48.522Z,16.60
2019-05-22T16:24:19.270Z,16.60
2019-05-22T16:26:49.718Z,16.50
2019-05-22T16:29:21.858Z,16.40
2019-05-22T16:31:52.391Z,16.40
2019-05-22T16:34:22.904Z,16.30
2019-05-22T16:36:54.258Z,16.20
2019-05-22T16:39:24.867Z,16.20
2019-05-22T16:41:54.917Z,16.10
2019-05-22T16:44:24.858Z,16.00
2019-05-22T16:46:54.641Z,16.00
2019-05-22T16:49:24.421Z,15.90
2019-05-22T16:51:55.195Z,15.90
2019-05-22T16:54:25.380Z,15.80
2019-05-22T16:56:55.596Z,15.80
2019-05-22T16:59:24.847Z,15.80
2019-05-22T17:01:59.612Z,15.80
2019-05-22T17:04:26.067Z,15.70
2019-05-22T17:06:56.038Z,15.60
2019-05-22T17:09:26.346Z,15.50
2019-05-22T17:11:56.733Z,15.50
2019-05-22T17:14:27.805Z,15.40
2019-05-22T17:16:57.510Z,15.40
2019-05-22T17:19:28.057Z,15.30
2019-05-22T17:21:58.014Z,15.30
2019-05-22T17:24:27.881Z,15.20
2019-05-22T17:26:57.320Z,15.20
2019-05-22T17:29:27.204Z,15.20
2019-05-22T17:31:56.693Z,15.20
2019-05-22T17:34:32.615Z,15.10
2019-05-22T17:37:06.182Z,15.00
2019-05-22T17:39:36.653Z,15.00
2019-05-22T17:42:08.937Z,15.00
2019-05-22T17:44:41.422Z,15.00
2019-05-22T17:47:11.823Z,15.00
2019-05-22T17:49:41.625Z,15.00
2019-05-22T17:52:12.757Z,15.00
2019-05-22T17:54:42.897Z,14.90
2019-05-22T17:57:13.779Z,14.90
2019-05-22T17:59:43.382Z,14.80
2019-05-22T18:02:14.290Z,14.80
2019-05-22T18:04:43.849Z,14.80
2019-05-22T18:07:13.513Z,14.70
2019-05-22T18:09:43.198Z,14.70
2019-05-22T18:12:13.269Z,14.70
2019-05-22T18:14:42.582Z,14.70
2019-05-22T18:17:12.174Z,14.70
2019-05-22T18:19:41.552Z,14.60
2019-05-22T18:22:12.482Z,14.50
2019-05-22T18:24:42.220Z,14.40
2019-05-22T18:27:11.578Z,14.30
2019-05-22T18:29:40.895Z,14.20
2019-05-22T18:32:12.131Z,14.20
2019-05-22T18:34:41.622Z,14.20
2019-05-22T18:37:10.941Z,14.20
2019-05-22T18:39:40.566Z,14.20
2019-05-22T18:42:10.400Z,14.20
2019-05-22T18:44:39.770Z,14.20
2019-05-22T18:47:10.103Z,14.10
2019-05-22T18:49:39.419Z,14.10
2019-05-22T18:52:09.494Z,14.10
2019-05-22T18:54:38.790Z,14.10
2019-05-22T18:57:08.072Z,14.00
2019-05-22T18:59:37.462Z,13.90
2019-05-22T19:02:07.037Z,13.90
2019-05-22T19:04:36.856Z,13.90
2019-05-22T19:07:06.349Z,13.90
2019-05-22T19:09:35.609Z,13.90
2019-05-22T19:12:05.506Z,13.90
2019-05-22T19:14:34.962Z,13.90
2019-05-22T19:17:04.878Z,13.90
2019-05-22T19:19:34.485Z,13.90
2019-05-22T19:22:03.753Z,13.90
2019-05-22T19:24:33.149Z,13.90
2019-05-22T19:27:02.458Z,13.90
2019-05-22T19:29:31.872Z,13.90
2019-05-22T19:32:01.224Z,13.90
2019-05-22T19:34:30.835Z,13.90
2019-05-22T19:37:00.326Z,13.80
2019-05-22T19:39:30.218Z,13.80
2019-05-22T19:42:04.095Z,13.90
2019-05-22T19:44:30.907Z,13.90
2019-05-22T19:47:00.749Z,13.90
2019-05-22T19:49:31.147Z,13.90
2019-05-22T19:52:01.048Z,13.80
2019-05-22T19:54:30.368Z,13.80
2019-05-22T19:56:59.861Z,13.70
2019-05-22T19:59:30.318Z,13.70
2019-05-22T20:02:00.167Z,13.70
2019-05-22T20:04:29.593Z,13.70
2019-05-22T20:06:59.094Z,13.60
2019-05-22T20:09:28.653Z,13.60
2019-05-22T20:11:57.951Z,13.60
2019-05-22T20:14:30.495Z,13.60
2019-05-22T20:16:58.727Z,13.60
2019-05-22T20:19:28.318Z,13.50
2019-05-22T20:22:00.298Z,13.50
2019-05-22T20:24:29.240Z,13.50
2019-05-22T20:26:58.569Z,13.50
2019-05-22T20:29:27.927Z,13.50
2019-05-22T20:31:57.385Z,13.50
2019-05-22T20:34:26.677Z,13.50
2019-05-22T20:36:57.148Z,13.50
2019-05-22T20:39:29.742Z,13.60
2019-05-22T20:41:59.687Z,13.60
2019-05-22T20:44:29.534Z,13.60
2019-05-22T20:46:58.983Z,13.50
2019-05-22T20:49:28.951Z,13.50
2019-05-22T20:51:58.135Z,13.50
2019-05-22T20:54:28.430Z,13.50
2019-05-22T20:56:59.269Z,13.40
2019-05-22T20:59:30.026Z,13.40
2019-05-22T21:01:59.585Z,13.50
2019-05-22T21:04:29.427Z,13.50
2019-05-22T21:07:02.208Z,13.50
2019-05-22T21:09:32.454Z,13.50
2019-05-22T21:12:03.239Z,13.50
2019-05-22T21:14:32.759Z,13.50
2019-05-22T21:17:02.345Z,13.40
2019-05-22T21:19:32.301Z,13.40
2019-05-22T21:22:02.766Z,13.40
2019-05-22T21:24:31.993Z,13.40
2019-05-22T21:27:01.550Z,13.40
2019-05-22T21:29:32.046Z,13.50
2019-05-22T21:32:01.517Z,13.50
2019-05-22T21:34:31.445Z,13.50
2019-05-22T21:37:01.680Z,13.50
2019-05-22T21:39:31.510Z,13.50
2019-05-22T21:42:00.904Z,13.40
2019-05-22T21:44:30.451Z,13.50
2019-05-22T21:47:00.255Z,13.50
2019-05-22T21:49:30.370Z,13.50
2019-05-22T21:52:00.422Z,13.50
2019-05-22T21:54:30.082Z,13.50
2019-05-22T21:57:00.845Z,13.50
2019-05-22T21:59:30.514Z,13.50
2019-05-22T22:02:09.385Z,13.50
2019-05-22T22:04:39.654Z,13.50
2019-05-22T22:07:09.457Z,13.40
2019-05-22T22:09:40.030Z,13.40
2019-05-22T22:12:10.574Z,13.40
2019-05-22T22:14:39.944Z,13.40
2019-05-22T22:17:10.088Z,13.40
2019-05-22T22:19:40.432Z,13.40
2019-05-22T22:22:14.098Z,13.40
2019-05-22T22:24:43.645Z,13.40
2019-05-22T22:27:13.985Z,13.40
2019-05-22T22:29:43.237Z,13.40
2019-05-22T22:32:13.170Z,13.40
2019-05-22T22:34:47.336Z,13.30
2019-05-22T22:37:17.418Z,13.30
2019-05-22T22:39:51.945Z,13.30
2019-05-22T22:42:26.645Z,13.20
2019-05-22T22:44:57.374Z,13.20
2019-05-22T22:47:46.959Z,13.20
2019-05-22T22:50:19.356Z,13.20
2019-05-22T22:52:49.333Z,13.20
2019-05-22T22:55:19.176Z,13.20
2019-05-22T22:57:49.697Z,13.20
2019-05-22T23:00:25.308Z,13.20
2019-05-22T23:02:55.734Z,13.20
2019-05-22T23:05:25.184Z,13.20
2019-05-22T23:07:55.641Z,13.20
2019-05-22T23:10:25.730Z,13.20
2019-05-22T23:12:55.722Z,13.20
2019-05-22T23:15:26.447Z,13.30
2019-05-22T23:17:56.618Z,13.30
2019-05-22T23:20:24.450Z,13.30
2019-05-22T23:22:52.307Z,13.30
2019-05-22T23:25:44.810Z,13.30
2019-05-22T23:28:14.070Z,13.40
2019-05-22T23:30:43.738Z,13.40
2019-05-22T23:33:13.018Z,13.30
2019-05-22T23:35:43.091Z,13.30
2019-05-22T23:38:14.647Z,13.30
2019-05-22T23:40:46.031Z,13.30
2019-05-22T23:43:16.398Z,13.30
2019-05-22T23:45:46.465Z,13.20
2019-05-22T23:48:17.131Z,13.20
2019-05-22T23:50:49.381Z,13.20
2019-05-22T23:53:20.821Z,13.20
2019-05-22T23:55:50.153Z,13.10
2019-05-22T23:58:22.819Z,13.10
